Highland Heights, Kentucky
Current Conditions -  °F | °C
As of 8:53 AM on Wednesday 26 Nov 2014 (Local Time) from KLUK Reporting Station
Overcast Overcast  
Wind Chill: 24°   Ceiling: 1900
Heat Index: 29°   Visibility: 8mi
Dew Point: 25°   Wind: 5mph
Humidity: 85%   Direction: 60°ENE
Pressure: 30.16"   Gusts: NA
Location:  39.0316°N, 84.4619°W
Report Text: KLUK 261353Z 06004KT 8SM OVC019 M02/M04 A3016 RMK AO2 SLP216 T10171039
Loading
Personal Weather Stations






























Interactive Weather Map New forecast layout! Learn more

10-Day Weather Forecast

Advertisements
Track Severe Weather on mobile